Time,TemperatureF,DewpointF,PressureIn,WindDirection,WindDirectionDegrees,WindSpeedMPH,WindSpeedGustMPH,Humidity,HourlyPrecipIn,Conditions,Clouds,dailyrainin,SoftwareType,DateUTC
2013-09-16 00:53:00,78.0,68.0,29.99,North,0,0.0,0.0,71,0.00,,,0.00,,2013-09-16 05:53:00,
2013-09-16 01:03:00,78.0,68.0,29.99,North,0,0.0,0.0,71,0.00,,,0.00,,2013-09-16 06:03:00,
2013-09-16 01:22:00,77.0,68.0,29.98,North,0,0.0,0.0,74,0.00,,,0.00,,2013-09-16 06:22:00,
2013-09-16 01:32:00,77.0,68.0,29.98,North,0,0.0,0.0,74,0.00,,,0.00,,2013-09-16 06:32:00,
2013-09-16 01:52:00,77.0,68.0,29.98,North,0,0.0,0.0,74,0.00,,,0.00,,2013-09-16 06:52:00,
2013-09-16 02:02:00,77.0,68.0,29.98,North,0,0.0,0.0,74,0.00,,,0.00,,2013-09-16 07:02:00,
2013-09-16 04:12:00,74.0,68.0,29.98,North,0,0.0,0.0,81,0.00,,,0.00,,2013-09-16 09:12:00,
2013-09-16 04:22:00,74.0,68.0,29.98,North,0,0.0,0.0,81,0.00,,,0.00,,2013-09-16 09:22:00,
2013-09-16 04:53:00,73.0,67.0,29.98,North,0,0.0,0.0,81,0.00,,,0.00,,2013-09-16 09:53:00,
2013-09-16 05:03:00,73.0,67.0,29.98,North,0,0.0,0.0,81,0.00,,,0.00,,2013-09-16 10:03:00,
2013-09-16 06:12:00,72.0,67.0,29.99,North,0,0.0,0.0,85,0.00,,,0.00,,2013-09-16 11:12:00,
2013-09-16 06:22:00,72.0,67.0,29.99,North,0,0.0,0.0,85,0.00,,,0.00,,2013-09-16 11:22:00,
2013-09-16 06:52:00,73.0,69.0,29.99,North,0,0.0,0.0,87,0.00,,,0.00,,2013-09-16 11:52:00,
2013-09-16 07:01:00,73.0,69.0,29.99,North,0,0.0,0.0,87,0.00,,,0.00,,2013-09-16 12:01:00,
2013-09-16 07:12:00,73.0,69.0,29.99,North,0,0.0,0.0,87,0.00,,,0.00,,2013-09-16 12:12:00,
2013-09-16 09:52:00,76.0,71.0,30.03,North,0,0.0,0.0,85,0.00,,,0.00,,2013-09-16 14:52:00,
2013-09-16 10:02:00,76.0,71.0,30.03,North,0,0.0,0.0,85,0.00,,,0.00,,2013-09-16 15:02:00,
2013-09-16 10:22:00,80.0,72.0,30.03,North,0,0.0,0.0,78,0.00,,,0.00,,2013-09-16 15:22:00,
2013-09-16 10:43:00,81.0,71.0,30.03,North,0,0.0,0.0,72,0.00,,,0.00,,2013-09-16 15:43:00,
2013-09-16 10:53:00,81.0,71.0,30.03,North,0,0.0,0.0,72,0.00,,,0.00,,2013-09-16 15:53:00,
2013-09-16 11:03:00,81.0,71.0,30.03,North,0,0.0,0.0,72,0.00,,,0.00,,2013-09-16 16:03:00,
2013-09-16 11:12:00,81.0,71.0,30.03,North,0,0.0,0.0,72,0.00,,,0.00,,2013-09-16 16:12:00,
2013-09-16 11:52:00,85.0,71.0,30.04,North,0,0.0,0.0,63,0.00,,,0.00,,2013-09-16 16:52:00,
2013-09-16 12:03:00,85.0,71.0,30.04,North,0,0.0,0.0,63,0.00,,,0.00,,2013-09-16 17:03:00,
2013-09-16 12:12:00,85.0,71.0,30.04,North,0,0.0,0.0,63,0.00,,,0.00,,2013-09-16 17:12:00,
2013-09-16 12:23:00,85.0,71.0,30.04,North,0,0.0,0.0,63,0.00,,,0.00,,2013-09-16 17:23:00,
2013-09-16 15:53:00,84.0,71.0,29.96,North,0,0.0,0.0,66,0.00,,,0.00,,2013-09-16 20:53:00,
2013-09-16 16:22:00,84.0,71.0,29.96,North,0,0.0,0.0,66,0.00,,,0.00,,2013-09-16 21:22:00,
2013-09-16 16:34:00,84.0,71.0,29.96,North,0,0.0,0.0,66,0.00,,,0.00,,2013-09-16 21:34:00,
2013-09-16 18:43:00,80.0,75.0,29.95,North,0,0.0,0.0,84,0.08,,,0.08,,2013-09-16 23:43:00,
2013-09-16 18:53:00,80.0,75.0,29.95,North,0,0.0,0.0,84,0.08,,,0.08,,2013-09-16 23:53:00,
2013-09-16 19:22:00,80.0,75.0,29.96,North,0,0.0,0.0,84,0.00,,,0.08,,2013-09-17 00:22:00,
2013-09-16 19:32:00,80.0,75.0,29.96,North,0,0.0,0.0,84,0.00,,,0.08,,2013-09-17 00:32:00,
2013-09-16 19:42:00,80.0,75.0,29.96,North,0,0.0,0.0,84,0.00,,,0.08,,2013-09-17 00:42:00,
2013-09-16 21:22:00,76.0,72.0,30.00,North,0,0.0,0.0,86,0.00,,,0.08,,2013-09-17 02:22:00,
2013-09-16 21:32:00,76.0,72.0,30.00,North,0,0.0,0.0,86,0.00,,,0.08,,2013-09-17 02:32:00,
2013-09-16 21:42:00,76.0,72.0,30.00,North,0,0.0,0.0,86,0.00,,,0.08,,2013-09-17 02:42:00,
2013-09-16 21:52:00,76.0,72.0,30.00,North,0,0.0,0.0,86,0.00,,,0.08,,2013-09-17 02:52:00,
2013-09-16 22:12:00,76.0,72.0,30.02,North,0,0.0,0.0,86,0.00,,,0.08,,2013-09-17 03:12:00,
2013-09-16 22:14:00,74.0,70.0,30.03,North,0,0.0,0.0,86,0.14,,,0.22,,2013-09-17 03:14:00,
2013-09-16 22:23:00,76.0,72.0,30.02,North,0,0.0,0.0,86,0.00,,,0.08,,2013-09-17 03:23:00,
2013-09-16 22:54:00,74.0,70.0,30.03,North,0,0.0,0.0,86,0.14,,,0.22,,2013-09-17 03:54:00,
2013-09-16 23:04:00,74.0,70.0,30.03,North,0,0.0,0.0,86,0.14,,,0.22,,2013-09-17 04:04:00,
2013-09-16 23:54:00,74.0,70.0,30.03,North,0,0.0,0.0,87,0.14,,,0.22,,2013-09-17 04:54:00,